Atlantic - Newfoundland: Past 24 Hour Conditions

 

Blanc-Sablon Airport

04:00 AM AST 20 August 2014
This table is a summary of hourly weather conditions for the past 24 hours.
Date / Time
(AST)
Wind(knots) Conditions Visibility(km) Pressure(kPa) Air tempC) Relative humidity(%) Dew pointC)
20 August 2014
4:00 NE 17 gust 22 Partly Cloudy 24 100.8 14 92 12
3:00 NE 16 gust 24 Mainly Clear 24 100.8 14 91 12
2:00 ENE 18 gust 26 Mainly Clear 24 100.7 13 93 12
1:00 ENE 11 Mainly Clear 24 100.8 14 92 12
0:00 ENE 17 gust 22 Partly Cloudy 24 100.8 14 92 13
19 August 2014
23:00 ENE 18 gust 24 Mostly Cloudy 24 100.8 14 92 13
22:00 NE 19 gust 25 Light Drizzle 6 100.8 14 94 13
21:00 ENE 18 gust 26 Light Drizzle 6 100.8 14 94 13
20:00 ENE 23 gust 30 Light Rain 6 100.8 13 94 12
19:00 ENE 22 gust 30 Mostly Cloudy 24 100.8 14 92 12
18:00 ENE 25 gust 32 Cloudy 16 100.7 14 91 12
17:00 ENE 31 gust 41 Cloudy 16 100.7 14 92 13
16:00 ENE 30 gust 39 Light Rain 6 100.7 13 95 13
15:00 ENE 30 gust 39 Light Rain 4 100.6 14 93 13
14:00 ENE 30 gust 42 Light Drizzle 16 100.6 14 91 12
13:00 ENE 31 gust 39 Cloudy 16 100.6 14 92 13
12:00 ENE 28 gust 38 Light Rain 6 100.8 13 94 12
11:00 ENE 29 gust 37 Light Rain 6 100.7 13 94 12
10:00 ENE 29 gust 38 Light Rain 6 100.8 13 93 12
9:00 ENE 26 gust 35 Light Rain 4 100.8 14 94 13
8:00 ENE 25 gust 35 Light Rain 4 100.8 14 94 13
7:00 ENE 24 gust 33 Light Rain 2 100.9 13 97 13
6:00 E 24 gust 31 Light Rain 3 100.9 14 96 13
5:00 E 22 gust 31 Fog 6 100.9 14 95 13
4:00 E 23 gust 33 Light Rain 6 100.9 14 95 13
 
Map of Atlantic - Newfoundland marine weather areas Southwestern Grand Banks - 44138 Banquereau - 44139 Tail of the Bank - 44140 Nickerson Bank - 44251 Northeast Burgeo Bank - 44255 Blanc-Sablon Airport Cap Whittle Chevery Natashquan Airport Heath Point Miscou Island Grand Étang Ingonish Beach North Mountain St.Paul Island J.A. Douglas McCurdy Sydney Airport Charlottetown Airport East Point North Cape Argentia Bonavista Burgeo Cape Race Corner Brook Daniel's Harbour Englee Ferolle Point La Scie Port aux Basques Rocky Harbour Sagona Island St. Anthony Airport St. John's Int'l Airport St. Lawrence Stephenville Airport Twillingate Winterland Wreckhouse Cartwright Airport Mary's Harbour Grates Cove Pool's Island Marticot Island Long Pond Îles de la Madeleine Airport
Legend: buoyBuoy land stationLand Station